Time;durP1;ratioP1;P1;durP2;ratioP2;P2;SDS_P1;SDS_P2;PMS_P1;PMS_P2;Temp;Humidity;BMP_temperature;BMP_pressure;BME280_temperature;BME280_humidity;BME280_pressure;Samples;Min_cycle;Max_cycle;Signal;HPM_P1;HPM_P2
2022/12/13 00:01:18;;;;;;;10.25;6.13;;;;;;;;;;5064353;28;20031;-84
2022/12/13 00:03:44;;;;;;;16.70;8.07;;;;;;;;;;5067836;28;20024;-84
2022/12/13 00:06:11;;;;;;;15.85;7.57;;;;;;;;;;5095213;28;20024;-84
2022/12/13 00:08:38;;;;;;;16.55;7.68;;;;;;;;;;5062350;28;20666;-84
2022/12/13 00:11:06;;;;;;;16.77;7.15;;;;;;;;;;5074792;28;20036;-84
2022/12/13 00:13:32;;;;;;;17.30;7.82;;;;;;;;;;5081687;28;20374;-84
2022/12/13 00:15:59;;;;;;;17.33;8.73;;;;;;;;;;5062922;28;20039;-84
2022/12/13 00:18:25;;;;;;;14.65;7.85;;;;;;;;;;5079898;28;20024;-84
2022/12/13 00:20:51;;;;;;;16.27;7.07;;;;;;;;;;5080158;28;20028;-85
2022/12/13 00:23:17;;;;;;;17.20;7.53;;;;;;;;;;5080706;28;20023;-85
2022/12/13 00:25:44;;;;;;;15.05;6.57;;;;;;;;;;5063712;28;20034;-84
2022/12/13 00:28:10;;;;;;;14.73;7.57;;;;;;;;;;5062942;28;20021;-85
2022/12/13 00:30:36;;;;;;;14.48;7.47;;;;;;;;;;5059910;28;20040;-84
2022/12/13 00:33:02;;;;;;;14.02;6.80;;;;;;;;;;5060659;28;20020;-84
2022/12/13 00:35:28;;;;;;;13.65;7.90;;;;;;;;;;5067205;28;20114;-83
2022/12/13 00:37:54;;;;;;;17.05;9.05;;;;;;;;;;5078057;28;20033;-83
2022/12/13 00:40:20;;;;;;;26.02;10.60;;;;;;;;;;5102562;28;20001;-84
2022/12/13 00:42:46;;;;;;;26.15;10.63;;;;;;;;;;5062074;28;20029;-84
2022/12/13 00:45:12;;;;;;;17.45;8.05;;;;;;;;;;5078510;28;20031;-84
2022/12/13 00:47:38;;;;;;;20.55;9.50;;;;;;;;;;5059613;28;20028;-84
2022/12/13 00:50:04;;;;;;;21.02;9.80;;;;;;;;;;5079493;28;20055;-84
2022/12/13 00:52:31;;;;;;;21.08;9.55;;;;;;;;;;5061364;28;20394;-84
2022/12/13 00:54:57;;;;;;;15.57;9.05;;;;;;;;;;5059735;28;20056;-84
2022/12/13 00:57:23;;;;;;;16.10;8.05;;;;;;;;;;5059851;28;20074;-84
2022/12/13 00:59:49;;;;;;;16.10;7.60;;;;;;;;;;5077409;28;20036;-84
2022/12/13 01:02:15;;;;;;;13.23;6.95;;;;;;;;;;5059494;28;20054;-84
2022/12/13 01:04:41;;;;;;;16.45;7.43;;;;;;;;;;5060150;28;20036;-84
2022/12/13 01:07:08;;;;;;;13.80;6.78;;;;;;;;;;5060056;28;20035;-84
2022/12/13 01:09:34;;;;;;;13.38;7.03;;;;;;;;;;5078404;28;20028;-83
2022/12/13 01:12:01;;;;;;;14.38;6.82;;;;;;;;;;5059642;28;20028;-83
2022/12/13 01:14:27;;;;;;;13.65;7.47;;;;;;;;;;5059308;28;20031;-83
2022/12/13 01:16:56;;;;;;;12.27;6.47;;;;;;;;;;5063971;28;20544;-83
2022/12/13 01:19:23;;;;;;;10.43;6.22;;;;;;;;;;5060815;28;20039;-83
2022/12/13 01:21:49;;;;;;;12.73;6.72;;;;;;;;;;5062011;28;20032;-84
2022/12/13 01:24:19;;;;;;;15.43;7.95;;;;;;;;;;5058893;28;20028;-83
2022/12/13 01:26:45;;;;;;;15.25;6.95;;;;;;;;;;5059070;28;20031;-84
2022/12/13 01:29:11;;;;;;;15.18;6.63;;;;;;;;;;5087849;28;20559;-83
2022/12/13 01:31:40;;;;;;;14.63;7.53;;;;;;;;;;5096840;28;20071;-83
2022/12/13 01:34:09;;;;;;;15.60;7.63;;;;;;;;;;5080530;28;20028;-83
2022/12/13 01:36:35;;;;;;;13.88;8.05;;;;;;;;;;5075415;28;20037;-83
2022/12/13 01:39:02;;;;;;;15.73;7.97;;;;;;;;;;5080913;28;20024;-83
2022/12/13 01:41:28;;;;;;;10.82;6.22;;;;;;;;;;5070980;28;20081;-83
2022/12/13 01:44:02;;;;;;;15.90;7.18;;;;;;;;;;5083447;28;20016;-81
2022/12/13 01:46:32;;;;;;;17.75;9.45;;;;;;;;;;5086043;28;20021;-83
2022/12/13 01:49:07;;;;;;;14.55;8.00;;;;;;;;;;5062404;28;20038;-83
2022/12/13 01:51:42;;;;;;;13.52;7.03;;;;;;;;;;5061905;28;20025;-83
2022/12/13 01:54:10;;;;;;;15.85;8.00;;;;;;;;;;5079635;28;20103;-83
2022/12/13 01:56:39;;;;;;;16.85;7.30;;;;;;;;;;5063080;28;20466;-83
2022/12/13 01:59:06;;;;;;;14.57;7.25;;;;;;;;;;5091255;28;20028;-83
2022/12/13 02:01:32;;;;;;;14.55;7.22;;;;;;;;;;5064201;28;20480;-83
2022/12/13 02:03:58;;;;;;;15.93;7.80;;;;;;;;;;5062111;28;20039;-83
2022/12/13 02:06:35;;;;;;;14.95;7.22;;;;;;;;;;5069266;28;20063;-83
2022/12/13 02:09:02;;;;;;;14.90;7.22;;;;;;;;;;5059760;28;20021;-83
2022/12/13 02:11:28;;;;;;;19.52;8.30;;;;;;;;;;5070701;28;20033;-83
2022/12/13 02:13:54;;;;;;;13.30;7.03;;;;;;;;;;5079504;28;20028;-84
2022/12/13 02:16:39;;;;;;;16.38;7.93;;;;;;;;;;5061717;28;20129;-83
2022/12/13 02:19:11;;;;;;;13.45;7.72;;;;;;;;;;5060896;28;20021;-83
2022/12/13 02:21:53;;;;;;;12.85;6.68;;;;;;;;;;5067839;28;20024;-83
2022/12/13 02:24:19;;;;;;;13.35;6.13;;;;;;;;;;5102106;28;20035;-81
2022/12/13 02:26:56;;;;;;;17.05;8.50;;;;;;;;;;5080356;28;20025;-82
2022/12/13 02:29:41;;;;;;;13.93;5.63;;;;;;;;;;5079720;28;20036;-81
2022/12/13 02:32:11;;;;;;;13.38;7.30;;;;;;;;;;5075844;28;20115;-81
2022/12/13 02:34:45;;;;;;;13.10;7.00;;;;;;;;;;5066055;28;20085;-81
2022/12/13 02:37:30;;;;;;;14.90;7.55;;;;;;;;;;5050102;28;20488;-81
2022/12/13 02:40:08;;;;;;;15.48;7.90;;;;;;;;;;5080623;28;20106;-81
2022/12/13 02:42:37;;;;;;;13.32;6.88;;;;;;;;;;5087512;28;20029;-82
2022/12/13 02:45:07;;;;;;;13.35;7.43;;;;;;;;;;5078036;28;20082;-83
2022/12/13 02:50:37;;;;;;;22.38;9.38;;;;;;;;;;5079898;28;20035;-81
2022/12/13 02:53:04;;;;;;;18.30;8.85;;;;;;;;;;5079880;28;20032;-82
2022/12/13 02:55:34;;;;;;;15.05;7.53;;;;;;;;;;5060950;28;20027;-81
2022/12/13 02:58:00;;;;;;;14.50;6.88;;;;;;;;;;5062304;28;20032;-81
2022/12/13 03:00:35;;;;;;;18.08;7.90;;;;;;;;;;5079667;28;20024;-82
2022/12/13 03:03:07;;;;;;;16.27;7.38;;;;;;;;;;5064083;28;20016;-81
2022/12/13 03:08:21;;;;;;;15.27;7.82;;;;;;;;;;5074356;28;20417;-81
2022/12/13 03:10:53;;;;;;;14.43;7.40;;;;;;;;;;5040776;28;20040;-81
2022/12/13 03:13:36;;;;;;;15.52;7.30;;;;;;;;;;5090490;28;20513;-82
2022/12/13 03:16:02;;;;;;;;;;;;;;;;;;5088274;28;20029;-81
2022/12/13 03:18:29;;;;;;;13.23;5.90;;;;;;;;;;5060476;28;19908;-83
2022/12/13 03:20:57;;;;;;;12.48;6.82;;;;;;;;;;5061684;28;20052;-81
2022/12/13 03:23:23;;;;;;;13.77;7.25;;;;;;;;;;5079320;28;20052;-81
2022/12/13 03:25:51;;;;;;;13.77;6.55;;;;;;;;;;5073035;28;20109;-81
2022/12/13 03:28:17;;;;;;;16.42;6.75;;;;;;;;;;5087429;28;20067;-81
2022/12/13 03:30:43;;;;;;;13.68;7.35;;;;;;;;;;5061283;28;20039;-81
2022/12/13 03:33:09;;;;;;;15.80;7.30;;;;;;;;;;5061030;28;20060;-81
2022/12/13 03:35:36;;;;;;;19.30;8.25;;;;;;;;;;5072265;28;20050;-81
2022/12/13 03:38:03;;;;;;;17.02;8.32;;;;;;;;;;5070797;28;20033;-81
2022/12/13 03:40:29;;;;;;;14.23;7.47;;;;;;;;;;5079343;28;20097;-81
2022/12/13 03:42:56;;;;;;;14.73;8.18;;;;;;;;;;5079472;28;20020;-81
2022/12/13 03:45:22;;;;;;;13.18;6.75;;;;;;;;;;5059895;28;20239;-81
2022/12/13 03:47:48;;;;;;;13.95;7.30;;;;;;;;;;5079982;28;20051;-81
2022/12/13 03:50:14;;;;;;;14.65;6.93;;;;;;;;;;5087696;28;20031;-81
2022/12/13 03:52:40;;;;;;;15.45;7.72;;;;;;;;;;5099501;28;20127;-81
2022/12/13 03:55:06;;;;;;;13.90;7.18;;;;;;;;;;5080162;28;20142;-81
2022/12/13 03:57:32;;;;;;;13.05;8.10;;;;;;;;;;5059223;28;20032;-81
2022/12/13 03:59:58;;;;;;;13.60;7.13;;;;;;;;;;5064266;28;20078;-81
2022/12/13 04:02:24;;;;;;;15.25;7.40;;;;;;;;;;5070487;28;20025;-81
2022/12/13 04:04:50;;;;;;;19.17;6.72;;;;;;;;;;5081595;28;20025;-81
2022/12/13 04:07:16;;;;;;;14.27;7.18;;;;;;;;;;5062644;28;20063;-81
2022/12/13 04:09:42;;;;;;;19.02;8.65;;;;;;;;;;5081608;28;20091;-81
2022/12/13 04:14:53;;;;;;;13.13;7.05;;;;;;;;;;5098674;28;20043;-81
2022/12/13 04:17:19;;;;;;;11.18;6.45;;;;;;;;;;5079605;28;20035;-80
2022/12/13 04:19:45;;;;;;;13.63;6.25;;;;;;;;;;5087524;28;20044;-80
2022/12/13 04:22:11;;;;;;;14.88;7.47;;;;;;;;;;5068357;28;20029;-81
2022/12/13 04:24:37;;;;;;;16.27;8.23;;;;;;;;;;5061919;28;20360;-81
2022/12/13 04:27:03;;;;;;;13.60;6.80;;;;;;;;;;5077008;28;20127;-81
2022/12/13 04:29:30;;;;;;;12.30;7.15;;;;;;;;;;5060499;28;20343;-80
2022/12/13 04:31:56;;;;;;;17.00;7.80;;;;;;;;;;5060755;28;20436;-81
2022/12/13 04:34:22;;;;;;;14.32;7.78;;;;;;;;;;5076108;28;20474;-80
2022/12/13 04:36:48;;;;;;;16.35;7.93;;;;;;;;;;5077572;28;20097;-81
2022/12/13 04:42:17;;;;;;;11.80;6.60;;;;;;;;;;5087615;28;20404;-80
2022/12/13 04:44:43;;;;;;;15.63;8.13;;;;;;;;;;5089731;28;20024;-80
2022/12/13 04:47:09;;;;;;;16.63;7.10;;;;;;;;;;5081764;28;20032;-80
2022/12/13 04:49:35;;;;;;;14.43;7.43;;;;;;;;;;5063799;28;20055;-80
2022/12/13 04:52:02;;;;;;;15.90;7.50;;;;;;;;;;5079132;28;20050;-80
2022/12/13 04:54:28;;;;;;;15.50;7.40;;;;;;;;;;5098366;28;20028;-81
2022/12/13 04:56:54;;;;;;;15.95;8.15;;;;;;;;;;5068376;28;20088;-80
2022/12/13 04:59:20;;;;;;;12.63;7.07;;;;;;;;;;5077516;28;20059;-81
2022/12/13 05:01:46;;;;;;;15.07;8.30;;;;;;;;;;5077727;28;20502;-80
2022/12/13 05:04:12;;;;;;;19.90;10.18;;;;;;;;;;5070025;28;20090;-80
2022/12/13 05:06:38;;;;;;;19.05;9.93;;;;;;;;;;5058880;28;20022;-80
2022/12/13 05:09:04;;;;;;;12.80;7.65;;;;;;;;;;5062764;28;20035;-80
2022/12/13 05:11:30;;;;;;;14.63;7.53;;;;;;;;;;5086253;28;20474;-80
2022/12/13 05:13:56;;;;;;;11.48;6.60;;;;;;;;;;5069472;28;20024;-80
2022/12/13 05:16:22;;;;;;;13.40;6.43;;;;;;;;;;5086871;28;20108;-79
2022/12/13 05:18:48;;;;;;;15.13;7.82;;;;;;;;;;5083373;28;20044;-80
2022/12/13 05:21:14;;;;;;;14.68;6.68;;;;;;;;;;5080472;28;20021;-80
2022/12/13 05:23:40;;;;;;;18.00;8.20;;;;;;;;;;5064867;28;20028;-79
2022/12/13 05:26:06;;;;;;;15.65;7.30;;;;;;;;;;5087783;28;20024;-79
2022/12/13 05:28:32;;;;;;;13.65;7.63;;;;;;;;;;5068327;28;20031;-80
2022/12/13 05:31:05;;;;;;;15.35;9.35;;;;;;;;;;5068122;28;20571;-80
2022/12/13 05:33:31;;;;;;;16.98;7.97;;;;;;;;;;5083304;28;20036;-81
2022/12/13 05:35:57;;;;;;;15.10;8.00;;;;;;;;;;5070348;28;20106;-81
2022/12/13 05:38:23;;;;;;;23.55;10.73;;;;;;;;;;5068126;28;20339;-81
2022/12/13 05:40:49;;;;;;;17.80;10.40;;;;;;;;;;5057515;28;20351;-81
2022/12/13 05:43:15;;;;;;;17.70;9.48;;;;;;;;;;5094203;28;20039;-81
2022/12/13 05:45:41;;;;;;;15.82;8.30;;;;;;;;;;5066748;28;20021;-81
2022/12/13 05:48:08;;;;;;;15.50;8.38;;;;;;;;;;5079186;28;20031;-80
2022/12/13 05:50:35;;;;;;;16.83;7.95;;;;;;;;;;5087088;28;20035;-81
2022/12/13 05:53:03;;;;;;;17.20;8.13;;;;;;;;;;5070438;28;20550;-81
2022/12/13 05:55:29;;;;;;;17.08;9.02;;;;;;;;;;5112250;28;20404;-80
2022/12/13 05:57:55;;;;;;;13.10;7.88;;;;;;;;;;5095808;28;20043;-80
2022/12/13 06:00:21;;;;;;;20.38;9.63;;;;;;;;;;5083853;28;20028;-79
2022/12/13 06:02:47;;;;;;;15.80;8.73;;;;;;;;;;5075358;28;20032;-81
2022/12/13 06:05:13;;;;;;;18.48;11.13;;;;;;;;;;5080234;28;20024;-81
2022/12/13 06:07:39;;;;;;;17.25;8.13;;;;;;;;;;5076205;28;20058;-81
2022/12/13 06:10:05;;;;;;;16.35;8.63;;;;;;;;;;5080235;28;20028;-81
2022/12/13 06:12:33;;;;;;;14.77;7.82;;;;;;;;;;5105656;28;20052;-81
2022/12/13 06:14:59;;;;;;;20.58;10.50;;;;;;;;;;5080800;28;20463;-81
2022/12/13 06:17:25;;;;;;;21.63;9.27;;;;;;;;;;5089843;28;20043;-80
2022/12/13 06:19:51;;;;;;;15.95;9.18;;;;;;;;;;5069423;28;20024;-80
2022/12/13 06:22:17;;;;;;;14.95;7.55;;;;;;;;;;5073220;28;20406;-81
2022/12/13 06:24:43;;;;;;;16.67;9.20;;;;;;;;;;5063817;28;20032;-81
2022/12/13 06:30:13;;;;;;;20.65;8.80;;;;;;;;;;5094069;28;20076;-82
2022/12/13 06:32:39;;;;;;;14.00;7.35;;;;;;;;;;5068382;28;20027;-81
2022/12/13 06:35:05;;;;;;;13.73;8.55;;;;;;;;;;5068471;28;20051;-81
2022/12/13 06:37:31;;;;;;;16.00;8.27;;;;;;;;;;5065603;28;20054;-82
2022/12/13 06:39:57;;;;;;;16.73;10.05;;;;;;;;;;5067800;28;20112;-82
2022/12/13 06:42:23;;;;;;;10.73;6.65;;;;;;;;;;5060850;28;20033;-80
2022/12/13 06:44:50;;;;;;;20.35;9.80;;;;;;;;;;5086751;28;20040;-82
2022/12/13 06:47:16;;;;;;;17.88;9.40;;;;;;;;;;5079260;28;20040;-82
2022/12/13 06:49:42;;;;;;;17.63;8.95;;;;;;;;;;5060744;28;20482;-82
2022/12/13 06:52:11;;;;;;;13.35;7.45;;;;;;;;;;5061171;28;20028;-80
2022/12/13 06:54:37;;;;;;;18.23;7.75;;;;;;;;;;5067687;28;20033;-80
2022/12/13 06:57:03;;;;;;;13.88;8.13;;;;;;;;;;5061737;28;20029;-81
2022/12/13 06:59:29;;;;;;;17.52;8.65;;;;;;;;;;5076621;28;20078;-81
2022/12/13 07:01:55;;;;;;;12.00;7.82;;;;;;;;;;5077319;28;20025;-80
2022/12/13 07:04:31;;;;;;;18.90;8.23;;;;;;;;;;5081680;28;20470;-81
2022/12/13 07:06:57;;;;;;;16.63;7.95;;;;;;;;;;5088226;28;20046;-81
2022/12/13 07:12:27;;;;;;;11.07;7.00;;;;;;;;;;5082068;28;20042;-80
2022/12/13 07:14:53;;;;;;;11.45;7.47;;;;;;;;;;5065272;28;20435;-81
2022/12/13 07:17:19;;;;;;;11.18;6.38;;;;;;;;;;5082931;28;20016;-80
2022/12/13 07:19:46;;;;;;;13.20;7.97;;;;;;;;;;5069106;28;20028;-82
2022/12/13 07:22:12;;;;;;;11.88;8.07;;;;;;;;;;5061624;28;20036;-81
2022/12/13 07:24:38;;;;;;;16.27;8.63;;;;;;;;;;5061224;28;20020;-80
2022/12/13 07:27:04;;;;;;;21.58;12.38;;;;;;;;;;5079612;28;20115;-80
2022/12/13 07:29:30;;;;;;;25.00;14.25;;;;;;;;;;5078273;28;20100;-81
2022/12/13 07:31:56;;;;;;;17.92;9.43;;;;;;;;;;5086173;28;20469;-81
2022/12/13 07:34:22;;;;;;;21.08;11.02;;;;;;;;;;5066009;28;20056;-82
2022/12/13 07:36:51;;;;;;;22.75;12.77;;;;;;;;;;5078772;28;20044;-82
2022/12/13 07:39:17;;;;;;;21.20;12.45;;;;;;;;;;5071399;28;20034;-82
2022/12/13 07:41:43;;;;;;;21.75;10.90;;;;;;;;;;5076917;28;20052;-82
2022/12/13 07:44:09;;;;;;;41.40;19.02;;;;;;;;;;5106384;28;20020;-82
2022/12/13 07:46:35;;;;;;;33.13;17.42;;;;;;;;;;5072213;28;20020;-82
2022/12/13 07:49:02;;;;;;;24.52;14.15;;;;;;;;;;5069311;28;20490;-82
2022/12/13 07:51:28;;;;;;;30.92;14.95;;;;;;;;;;5075691;28;20035;-82
2022/12/13 07:53:54;;;;;;;28.35;15.70;;;;;;;;;;5099418;28;20032;-83
2022/12/13 07:56:20;;;;;;;27.60;15.40;;;;;;;;;;5105196;28;20005;-83
2022/12/13 07:58:46;;;;;;;28.40;15.20;;;;;;;;;;5090786;28;20525;-82
2022/12/13 08:01:12;;;;;;;20.20;11.90;;;;;;;;;;5080254;28;20028;-83
2022/12/13 08:03:38;;;;;;;28.13;13.65;;;;;;;;;;5080359;28;20024;-82
2022/12/13 08:06:12;;;;;;;25.27;11.23;;;;;;;;;;5077166;28;20042;-82
2022/12/13 08:08:38;;;;;;;24.92;11.63;;;;;;;;;;5070157;28;20016;-82
2022/12/13 08:11:05;;;;;;;23.10;11.55;;;;;;;;;;5098115;28;20024;-82
2022/12/13 08:13:32;;;;;;;26.08;12.82;;;;;;;;;;5098017;28;20405;-83
2022/12/13 08:15:59;;;;;;;34.90;19.38;;;;;;;;;;5091171;28;20024;-82
2022/12/13 08:18:25;;;;;;;34.55;17.52;;;;;;;;;;5045251;28;20031;-82
2022/12/13 08:20:51;;;;;;;31.67;15.75;;;;;;;;;;5077364;28;20029;-82
2022/12/13 08:23:17;;;;;;;26.23;14.95;;;;;;;;;;5064557;28;20024;-83
2022/12/13 08:25:50;;;;;;;29.35;14.93;;;;;;;;;;5097459;28;20428;-83
2022/12/13 08:28:16;;;;;;;23.83;14.80;;;;;;;;;;5059197;28;20029;-83
2022/12/13 08:31:05;;;;;;;26.35;13.60;;;;;;;;;;5080862;28;20419;-82
2022/12/13 08:36:35;;;;;;;44.40;17.85;;;;;;;;;;5093988;28;20093;-82
2022/12/13 08:39:01;;;;;;;33.85;18.80;;;;;;;;;;5075442;28;20099;-82
2022/12/13 08:41:28;;;;;;;79.65;37.45;;;;;;;;;;5078367;28;20078;-82
2022/12/13 08:43:54;;;;;;;122.47;46.25;;;;;;;;;;5075023;28;20306;-82
2022/12/13 08:49:23;;;;;;;42.58;19.40;;;;;;;;;;5073783;28;20039;-83
2022/12/13 08:54:53;;;;;;;91.10;35.58;;;;;;;;;;5076842;28;20022;-83
2022/12/13 08:57:19;;;;;;;70.78;27.17;;;;;;;;;;5058706;28;20084;-83
2022/12/13 08:59:45;;;;;;;56.58;26.15;;;;;;;;;;5066142;28;20036;-83
2022/12/13 09:02:13;;;;;;;39.00;16.77;;;;;;;;;;5078868;28;20115;-81
2022/12/13 09:04:39;;;;;;;26.98;14.45;;;;;;;;;;5097181;28;20047;-80
2022/12/13 09:07:05;;;;;;;41.95;19.05;;;;;;;;;;5078938;28;20032;-84
2022/12/13 09:09:31;;;;;;;52.30;24.02;;;;;;;;;;5083620;28;20687;-82
2022/12/13 09:11:57;;;;;;;22.08;12.25;;;;;;;;;;5058856;28;20037;-82
2022/12/13 09:14:23;;;;;;;24.02;13.50;;;;;;;;;;5076925;28;20027;-82
2022/12/13 09:16:49;;;;;;;20.90;11.85;;;;;;;;;;5077665;28;20091;-82
2022/12/13 09:22:20;;;;;;;18.63;10.70;;;;;;;;;;5076708;28;20043;-82
2022/12/13 09:27:49;;;;;;;17.25;11.20;;;;;;;;;;5097555;28;20035;-82
2022/12/13 09:30:15;;;;;;;17.17;9.90;;;;;;;;;;5078904;28;20031;-82
2022/12/13 09:32:48;;;;;;;26.45;13.10;;;;;;;;;;5095038;28;20032;-83
2022/12/13 09:35:14;;;;;;;27.52;14.18;;;;;;;;;;5056543;28;20028;-82
2022/12/13 09:37:40;;;;;;;28.05;13.02;;;;;;;;;;5040890;28;20029;-83
2022/12/13 09:40:06;;;;;;;21.88;12.13;;;;;;;;;;5050989;28;20028;-81
2022/12/13 09:42:33;;;;;;;16.85;9.98;;;;;;;;;;5073371;28;20028;-81
2022/12/13 09:45:03;;;;;;;18.73;10.57;;;;;;;;;;5071609;28;20021;-81
2022/12/13 09:47:37;;;;;;;18.73;10.13;;;;;;;;;;5089001;28;19997;-82
2022/12/13 09:50:08;;;;;;;18.48;10.45;;;;;;;;;;5102369;28;20076;-82
2022/12/13 09:52:39;;;;;;;18.55;10.48;;;;;;;;;;5093929;28;20056;-82
2022/12/13 09:55:19;;;;;;;16.52;9.95;;;;;;;;;;5075170;28;20036;-82
2022/12/13 09:57:46;;;;;;;25.10;11.70;;;;;;;;;;5056872;28;20017;-82
2022/12/13 10:00:14;;;;;;;21.25;11.80;;;;;;;;;;5094375;28;20051;-82
2022/12/13 10:02:54;;;;;;;19.25;11.77;;;;;;;;;;5096246;28;20028;-82
2022/12/13 10:05:22;;;;;;;21.00;12.00;;;;;;;;;;5055818;28;20032;-82
2022/12/13 10:07:48;;;;;;;21.02;10.85;;;;;;;;;;5055169;28;20077;-82
2022/12/13 10:10:14;;;;;;;18.42;8.93;;;;;;;;;;5074558;28;20047;-82
2022/12/13 10:12:42;;;;;;;14.95;9.65;;;;;;;;;;5074997;28;20096;-82
2022/12/13 10:15:10;;;;;;;18.80;10.98;;;;;;;;;;5073924;28;20036;-82
2022/12/13 10:17:38;;;;;;;18.85;10.30;;;;;;;;;;5095146;28;20110;-81
2022/12/13 10:20:05;;;;;;;14.00;8.25;;;;;;;;;;5095225;28;20024;-82
2022/12/13 10:22:31;;;;;;;14.48;7.75;;;;;;;;;;5094971;28;20019;-82
2022/12/13 10:25:04;;;;;;;16.50;8.00;;;;;;;;;;5075979;28;20057;-82
2022/12/13 10:27:39;;;;;;;15.88;7.85;;;;;;;;;;5093095;28;20538;-82
2022/12/13 10:30:05;;;;;;;13.32;7.65;;;;;;;;;;5073895;28;20390;-82
2022/12/13 10:32:35;;;;;;;14.95;8.95;;;;;;;;;;5073923;28;20565;-82
2022/12/13 10:35:11;;;;;;;15.27;9.25;;;;;;;;;;5074309;28;20500;-83
2022/12/13 10:37:37;;;;;;;18.10;9.95;;;;;;;;;;5090912;28;20040;-83
2022/12/13 10:40:03;;;;;;;18.58;10.15;;;;;;;;;;5073006;28;20133;-83
2022/12/13 10:42:29;;;;;;;18.17;9.35;;;;;;;;;;5073304;28;20032;-84
2022/12/13 10:45:10;;;;;;;19.83;9.82;;;;;;;;;;5073040;28;20024;-83
2022/12/13 10:47:36;;;;;;;15.45;8.00;;;;;;;;;;5072834;28;20021;-82
2022/12/13 10:50:03;;;;;;;17.40;10.40;;;;;;;;;;5075695;28;20024;-83
2022/12/13 10:52:33;;;;;;;20.25;10.13;;;;;;;;;;5106169;28;20032;-83
2022/12/13 10:55:01;;;;;;;17.08;10.30;;;;;;;;;;5093679;28;20035;-83
2022/12/13 10:57:28;;;;;;;18.10;10.73;;;;;;;;;;5093327;28;20024;-83
2022/12/13 10:59:54;;;;;;;18.30;8.95;;;;;;;;;;5090349;28;20021;-83
2022/12/13 11:02:31;;;;;;;15.85;10.30;;;;;;;;;;5092102;28;20136;-83
2022/12/13 11:04:58;;;;;;;16.05;9.73;;;;;;;;;;5069865;28;20028;-83
2022/12/13 11:07:31;;;;;;;15.85;9.48;;;;;;;;;;5090802;28;20103;-82
2022/12/13 11:09:58;;;;;;;14.90;9.02;;;;;;;;;;5082226;28;20084;-81
2022/12/13 11:24:34;;;;;;;15.60;9.32;;;;;;;;;;4693217;28;20049;-81
2022/12/13 11:27:05;;;;;;;16.85;9.05;;;;;;;;;;4978574;28;20031;-81
2022/12/13 11:29:37;;;;;;;14.43;8.35;;;;;;;;;;4984079;28;20114;-81
2022/12/13 11:32:36;;;;;;;13.13;8.98;;;;;;;;;;4996698;28;20466;-82
2022/12/13 11:35:02;;;;;;;11.27;6.88;;;;;;;;;;4926733;29;20041;-82
2022/12/13 11:40:33;;;;;;;13.40;6.95;;;;;;;;;;4920419;29;20075;-82
2022/12/13 11:43:05;;;;;;;11.82;6.78;;;;;;;;;;4926534;29;20071;-82
2022/12/13 11:45:43;;;;;;;12.07;7.55;;;;;;;;;;4932006;29;20210;-81
2022/12/13 11:48:09;;;;;;;11.20;6.65;;;;;;;;;;4914400;29;20028;-81
2022/12/13 11:50:42;;;;;;;11.57;6.50;;;;;;;;;;4923789;29;20565;-81
2022/12/13 11:53:17;;;;;;;11.52;6.78;;;;;;;;;;4920059;29;20044;-81
2022/12/13 11:55:46;;;;;;;11.88;7.55;;;;;;;;;;4926778;29;20079;-81
2022/12/13 11:58:24;;;;;;;11.25;6.55;;;;;;;;;;4924695;29;20048;-81
2022/12/13 12:00:55;;;;;;;11.63;5.78;;;;;;;;;;4926752;29;20024;-81
2022/12/13 12:03:25;;;;;;;12.15;6.60;;;;;;;;;;4923300;29;20071;-83
2022/12/13 12:05:55;;;;;;;11.20;7.07;;;;;;;;;;4910205;29;20059;-82
2022/12/13 12:08:41;;;;;;;11.48;6.18;;;;;;;;;;4927628;29;20111;-82
2022/12/13 12:20:27;;;;;;;10.70;6.32;;;;;;;;;;3515882;28;22216;-79
2022/12/13 12:25:57;;;;;;;12.98;6.85;;;;;;;;;;4962397;28;20427;-80
2022/12/13 12:28:46;;;;;;;12.80;6.47;;;;;;;;;;4954867;29;20055;-80
2022/12/13 12:31:31;;;;;;;7.45;4.40;;;;;;;;;;4945730;29;20032;-80
2022/12/13 12:34:14;;;;;;;9.32;4.60;;;;;;;;;;4943941;29;20043;-81
2022/12/13 12:36:40;;;;;;;8.82;3.97;;;;;;;;;;4942270;29;20035;-80
2022/12/13 12:39:24;;;;;;;8.38;4.20;;;;;;;;;;4938546;29;20084;-80
2022/12/13 12:42:03;;;;;;;9.95;4.80;;;;;;;;;;4923164;29;20039;-80
2022/12/13 12:44:41;;;;;;;8.73;3.90;;;;;;;;;;4928249;29;20501;-80
2022/12/13 12:47:27;;;;;;;9.60;4.32;;;;;;;;;;4941262;29;20051;-80
2022/12/13 12:50:12;;;;;;;8.70;4.30;;;;;;;;;;4924815;29;20038;-80
2022/12/13 12:52:56;;;;;;;8.48;4.82;;;;;;;;;;4942975;29;20497;-80
2022/12/13 12:55:37;;;;;;;15.52;5.47;;;;;;;;;;4943121;29;20038;-81
2022/12/13 12:58:21;;;;;;;10.50;4.97;;;;;;;;;;4938522;29;20016;-81
2022/12/13 13:01:06;;;;;;;10.93;4.85;;;;;;;;;;4941935;29;20048;-80
2022/12/13 13:03:35;;;;;;;9.88;5.63;;;;;;;;;;4943295;29;20024;-82
2022/12/13 13:06:04;;;;;;;15.50;5.68;;;;;;;;;;4942420;29;20020;-80
2022/12/13 13:08:38;;;;;;;8.65;4.25;;;;;;;;;;4943258;29;20042;-80
2022/12/13 13:11:05;;;;;;;9.88;4.45;;;;;;;;;;4942674;29;20031;-80
2022/12/13 13:13:48;;;;;;;7.78;4.03;;;;;;;;;;4941130;29;20119;-82
2022/12/13 13:16:26;;;;;;;9.73;4.53;;;;;;;;;;4924726;29;20024;-81
2022/12/13 13:18:59;;;;;;;9.80;4.70;;;;;;;;;;4932029;29;20028;-81
2022/12/13 13:21:31;;;;;;;7.07;3.88;;;;;;;;;;4951468;29;20119;-80
2022/12/13 13:24:00;;;;;;;11.07;4.75;;;;;;;;;;4961992;28;20029;-81
2022/12/13 13:26:30;;;;;;;8.32;4.30;;;;;;;;;;4961117;28;20481;-81
2022/12/13 13:29:15;;;;;;;9.25;5.10;;;;;;;;;;4958326;28;20042;-82
2022/12/13 13:31:59;;;;;;;8.10;5.00;;;;;;;;;;4961750;28;20043;-81
2022/12/13 13:34:27;;;;;;;24.95;8.27;;;;;;;;;;4951592;28;20042;-82
2022/12/13 13:36:55;;;;;;;15.18;5.90;;;;;;;;;;4956182;28;20032;-82
2022/12/13 13:39:27;;;;;;;11.48;5.18;;;;;;;;;;4963025;28;20114;-82
2022/12/13 13:41:54;;;;;;;8.75;4.38;;;;;;;;;;4962035;29;20031;-82
2022/12/13 13:44:33;;;;;;;9.02;4.10;;;;;;;;;;4963402;28;20023;-82
2022/12/13 13:47:18;;;;;;;10.38;4.80;;;;;;;;;;4961825;28;20030;-83
2022/12/13 13:49:59;;;;;;;7.68;4.30;;;;;;;;;;4963383;28;20085;-82
2022/12/13 13:52:45;;;;;;;13.25;5.38;;;;;;;;;;4965882;29;20093;-81
2022/12/13 13:55:11;;;;;;;11.73;4.90;;;;;;;;;;4964026;28;20532;-82
2022/12/13 13:57:46;;;;;;;14.85;5.40;;;;;;;;;;4964365;29;20039;-82
2022/12/13 14:00:13;;;;;;;10.45;5.00;;;;;;;;;;4964505;28;20118;-81
2022/12/13 14:02:39;;;;;;;8.35;4.45;;;;;;;;;;4963022;28;20058;-82
2022/12/13 14:05:10;;;;;;;8.02;4.15;;;;;;;;;;4963142;28;20028;-82
2022/12/13 14:07:50;;;;;;;9.30;4.90;;;;;;;;;;4961568;28;20020;-82
2022/12/13 14:10:35;;;;;;;9.13;4.72;;;;;;;;;;4944662;29;20120;-81
2022/12/13 14:13:19;;;;;;;8.55;4.70;;;;;;;;;;4961151;28;20035;-81
2022/12/13 14:15:49;;;;;;;9.27;5.18;;;;;;;;;;4960937;28;20062;-82
2022/12/13 14:18:34;;;;;;;8.70;4.82;;;;;;;;;;4962561;28;20027;-81
2022/12/13 14:21:07;;;;;;;11.88;5.03;;;;;;;;;;4964418;28;20043;-81
2022/12/13 14:23:34;;;;;;;9.98;4.65;;;;;;;;;;4968432;28;20028;-81
2022/12/13 14:26:11;;;;;;;9.88;4.80;;;;;;;;;;4948983;29;20043;-81
2022/12/13 14:28:46;;;;;;;8.85;4.35;;;;;;;;;;4953111;28;20074;-81
2022/12/13 14:31:14;;;;;;;8.80;4.30;;;;;;;;;;4966594;28;20404;-81
2022/12/13 14:33:43;;;;;;;8.30;4.13;;;;;;;;;;4969532;28;20050;-82
2022/12/13 14:36:14;;;;;;;13.48;5.13;;;;;;;;;;4967464;28;20051;-81
2022/12/13 14:38:58;;;;;;;9.25;4.90;;;;;;;;;;4973207;29;20044;-81
2022/12/13 14:41:24;;;;;;;10.73;4.40;;;;;;;;;;4963418;28;20515;-81
2022/12/13 14:43:50;;;;;;;11.75;4.93;;;;;;;;;;4965042;28;20035;-81
2022/12/13 14:46:16;;;;;;;9.38;4.82;;;;;;;;;;4966293;28;20110;-81
2022/12/13 14:48:47;;;;;;;9.93;5.05;;;;;;;;;;4963858;28;20043;-81
2022/12/13 14:51:19;;;;;;;12.43;5.25;;;;;;;;;;4964288;28;20479;-82
2022/12/13 14:53:45;;;;;;;9.45;5.25;;;;;;;;;;4964461;28;20024;-81
2022/12/13 14:56:13;;;;;;;8.35;4.80;;;;;;;;;;4963613;28;20046;-81
2022/12/13 14:58:40;;;;;;;10.27;4.65;;;;;;;;;;4964016;29;20031;-82
2022/12/13 15:01:23;;;;;;;11.23;5.35;;;;;;;;;;4964536;28;20037;-81
2022/12/13 15:03:49;;;;;;;12.32;5.75;;;;;;;;;;4964456;28;20382;-81
2022/12/13 15:06:17;;;;;;;11.43;5.28;;;;;;;;;;4964315;28;20078;-81
2022/12/13 15:08:43;;;;;;;11.38;6.20;;;;;;;;;;4963261;28;20034;-81
2022/12/13 15:11:09;;;;;;;10.60;6.65;;;;;;;;;;4962809;28;20093;-81
2022/12/13 15:13:43;;;;;;;43.50;19.60;;;;;;;;;;4964127;28;20122;-82
2022/12/13 15:16:18;;;;;;;12.82;7.63;;;;;;;;;;4954198;29;20036;-81
2022/12/13 15:18:44;;;;;;;16.27;7.75;;;;;;;;;;4960780;28;20101;-81
2022/12/13 15:21:18;;;;;;;13.80;8.07;;;;;;;;;;4961826;28;20059;-82
2022/12/13 15:23:44;;;;;;;17.95;8.80;;;;;;;;;;4962818;29;20036;-81
2022/12/13 15:26:13;;;;;;;17.73;9.98;;;;;;;;;;4961019;29;20058;-81
2022/12/13 15:28:41;;;;;;;16.00;8.10;;;;;;;;;;4961407;28;20027;-81
2022/12/13 15:31:08;;;;;;;17.75;10.90;;;;;;;;;;4960917;28;20489;-81
2022/12/13 15:33:34;;;;;;;13.05;6.18;;;;;;;;;;4963943;28;20461;-81
2022/12/13 15:36:06;;;;;;;17.00;9.95;;;;;;;;;;4961632;28;20141;-81
2022/12/13 15:38:33;;;;;;;15.93;8.87;;;;;;;;;;4962551;29;20027;-81
2022/12/13 15:41:01;;;;;;;14.23;7.80;;;;;;;;;;4967182;28;20011;-80